Terminal Aerodrome Forecast
Issued by NWS

Home | Current Version | Previous Version | Graphics & Text | Print | Product List | Glossary Off
Versions: 1 2 3 4 5 6 7 8 9 10 11 12 13 14 15 16 17 18

157
FTUS43 KICT 200202 AAB
TAFHUT
TAF AMD
KHUT 200202Z 2002/2024 11005KT 3SM BR OVC005
      TEMPO 2002/2005 1SM BR OVC002
     FM200500 10004KT 1/2SM -DZ FG OVC003
     FM200900 VRB03KT 1/4SM -DZ FG OVC003
     FM201500 11004KT 1SM BR OVC003
     FM201800 16007KT P6SM OVC008
     FM202300 19009KT P6SM BKN025=

USA.gov is the U.S. government's official web portal to all federal, state and local government web resources and services.